createdAt,value
2024-03-10T00:05:42.836Z,8.20
2024-03-10T00:12:25.192Z,8.40
2024-03-10T00:19:09.116Z,8.60
2024-03-10T00:25:51.562Z,8.60
2024-03-10T00:32:34.452Z,8.30
2024-03-10T00:39:16.998Z,8.50
2024-03-10T00:45:59.192Z,8.70
2024-03-10T00:52:41.744Z,9.00
2024-03-10T00:59:24.425Z,8.90
2024-03-10T01:06:07.579Z,8.80
2024-03-10T01:12:49.807Z,9.10
2024-03-10T01:19:32.281Z,9.00
2024-03-10T01:26:14.858Z,8.70
2024-03-10T01:32:57.517Z,8.90
2024-03-10T01:39:39.946Z,9.10
2024-03-10T01:53:04.891Z,8.60
2024-03-10T01:59:49.423Z,8.80
2024-03-10T02:06:32.006Z,9.00
2024-03-10T02:13:14.712Z,9.00
2024-03-10T02:19:57.958Z,8.70
2024-03-10T02:33:46.671Z,8.30
2024-03-10T02:40:47.220Z,8.50
2024-03-10T02:47:29.501Z,8.60
2024-03-10T02:54:11.929Z,8.30
2024-03-10T03:00:54.282Z,8.20
2024-03-10T03:07:36.650Z,8.40
2024-03-10T03:14:19.013Z,8.30
2024-03-10T03:21:01.589Z,8.10
2024-03-10T03:27:51.291Z,7.90
2024-03-10T03:34:34.379Z,8.20
2024-03-10T03:41:16.784Z,8.10
2024-03-10T03:47:59.126Z,8.20
2024-03-10T03:54:42.319Z,8.30
2024-03-10T04:01:24.740Z,8.20
2024-03-10T04:08:08.076Z,8.20
2024-03-10T04:14:50.525Z,8.00
2024-03-10T04:21:34.120Z,7.80
2024-03-10T04:28:16.726Z,7.50
2024-03-10T04:34:59.442Z,7.60
2024-03-10T04:48:24.849Z,7.20
2024-03-10T04:55:08.995Z,7.60
2024-03-10T05:01:54.637Z,7.50
2024-03-10T05:08:37.152Z,7.50
2024-03-10T05:15:19.450Z,7.50
2024-03-10T05:22:03.321Z,7.30
2024-03-10T05:28:45.690Z,7.30
2024-03-10T05:35:28.168Z,7.30
2024-03-10T05:42:10.683Z,7.60
2024-03-10T05:48:56.393Z,7.40
2024-03-10T05:55:38.743Z,7.60
2024-03-10T06:02:21.070Z,7.50
2024-03-10T06:09:06.060Z,7.30
2024-03-10T06:15:48.706Z,7.50
2024-03-10T06:22:49.406Z,7.50
2024-03-10T06:29:31.858Z,7.50
2024-03-10T06:36:14.958Z,7.30
2024-03-10T06:42:57.685Z,6.90
2024-03-10T06:49:40.552Z,7.10
2024-03-10T06:56:22.908Z,7.00
2024-03-10T07:03:05.811Z,7.20
2024-03-10T07:09:48.911Z,7.40
2024-03-10T07:16:32.328Z,7.50
2024-03-10T07:23:14.804Z,7.50
2024-03-10T07:29:58.466Z,7.50
2024-03-10T07:36:40.884Z,7.70
2024-03-10T07:43:23.980Z,8.00
2024-03-10T10:12:13.716Z,13.70
2024-03-10T10:18:59.778Z,14.80
2024-03-10T10:25:46.333Z,14.40
2024-03-10T10:32:29.371Z,14.40
2024-03-10T10:39:17.289Z,15.30
2024-03-10T10:46:00.296Z,15.00
2024-03-10T10:52:42.844Z,14.40
2024-03-10T10:59:26.423Z,14.60
2024-03-10T11:06:15.830Z,15.00
2024-03-10T11:13:08.614Z,14.60
2024-03-10T11:19:53.218Z,14.30
2024-03-10T11:26:35.789Z,14.30
2024-03-10T11:33:22.297Z,14.50
2024-03-10T11:40:06.179Z,14.50
2024-03-10T11:46:48.474Z,14.50
2024-03-10T11:53:31.283Z,14.30
2024-03-10T12:00:22.843Z,14.20
2024-03-10T12:07:09.609Z,14.50
2024-03-10T12:13:52.224Z,14.30
2024-03-10T12:20:36.482Z,15.10
2024-03-10T12:27:19.045Z,15.20
2024-03-10T12:34:03.458Z,15.00
2024-03-10T12:40:46.289Z,15.00
2024-03-10T12:47:29.194Z,14.90
2024-03-10T12:54:11.624Z,15.10
2024-03-10T13:00:54.206Z,14.80
2024-03-10T13:07:37.614Z,15.10
2024-03-10T13:14:20.989Z,15.30
2024-03-10T13:21:03.943Z,14.90
2024-03-10T13:27:46.587Z,15.00
2024-03-10T13:34:29.862Z,14.90
2024-03-10T13:41:12.673Z,14.60
2024-03-10T13:47:55.495Z,14.50
2024-03-10T13:54:38.159Z,14.20
2024-03-10T14:01:20.615Z,14.00
2024-03-10T14:08:04.100Z,14.00
2024-03-10T14:14:49.142Z,14.00
2024-03-10T14:21:32.566Z,13.60
2024-03-10T14:28:16.678Z,13.80
2024-03-10T14:35:00.630Z,13.80
2024-03-10T14:41:43.848Z,13.90
2024-03-10T14:48:28.006Z,13.80
2024-03-10T14:55:12.783Z,13.60
2024-03-10T15:01:55.359Z,13.60
2024-03-10T15:08:38.168Z,13.50
2024-03-10T15:15:22.248Z,13.50
2024-03-10T15:22:05.007Z,13.40
2024-03-10T15:28:47.686Z,13.20
